createdAt,value
2022-08-17T00:01:44.924Z,98.10
2022-08-17T00:04:20.423Z,98.20
2022-08-17T00:06:47.555Z,98.20
2022-08-17T00:09:18.952Z,98.00
2022-08-17T00:12:34.866Z,97.80
2022-08-17T00:14:35.150Z,97.90
2022-08-17T00:17:03.830Z,98.40
2022-08-17T00:19:32.503Z,99.00
2022-08-17T00:22:32.891Z,99.70
2022-08-17T00:24:47.614Z,99.30
2022-08-17T00:27:14.373Z,99.40
2022-08-17T00:29:42.165Z,99.20
2022-08-17T00:33:13.722Z,99.30
2022-08-17T00:34:55.647Z,99.50
2022-08-17T00:37:22.368Z,99.50
2022-08-17T00:39:49.148Z,99.30
2022-08-17T00:42:18.087Z,99.30
2022-08-17T00:44:45.063Z,99.90
2022-08-17T00:47:11.794Z,99.90
2022-08-17T00:49:38.579Z,99.90
2022-08-17T00:52:15.366Z,99.90
2022-08-17T00:54:45.314Z,99.90
2022-08-17T00:57:26.246Z,99.90
2022-08-17T01:00:02.714Z,99.90
2022-08-17T01:02:41.697Z,99.90
2022-08-17T01:05:15.278Z,99.80
2022-08-17T01:07:44.290Z,99.60
2022-08-17T01:10:58.954Z,99.90
2022-08-17T01:13:05.147Z,99.90
2022-08-17T01:15:36.169Z,99.90
2022-08-17T01:18:05.403Z,99.90
2022-08-17T01:20:47.863Z,99.90
2022-08-17T01:23:18.574Z,99.90
2022-08-17T01:25:53.858Z,99.90
2022-08-17T01:28:52.688Z,99.90
2022-08-17T01:31:10.104Z,99.90
2022-08-17T01:33:37.437Z,99.90
2022-08-17T01:36:07.223Z,99.90
2022-08-17T01:38:38.335Z,99.90
2022-08-17T01:41:12.314Z,99.90
2022-08-17T01:43:47.729Z,99.90
2022-08-17T01:46:21.061Z,99.90
2022-08-17T01:48:48.420Z,99.90
2022-08-17T01:51:16.036Z,99.90
2022-08-17T01:53:48.419Z,99.90
2022-08-17T01:56:19.653Z,99.90
2022-08-17T01:58:46.343Z,99.90
2022-08-17T02:01:19.421Z,99.90
2022-08-17T02:03:59.440Z,99.90
2022-08-17T02:06:44.802Z,99.90
2022-08-17T02:09:19.792Z,99.90
2022-08-17T02:11:50.218Z,99.90
2022-08-17T02:14:17.961Z,99.90
2022-08-17T02:16:44.704Z,99.90
2022-08-17T02:19:15.591Z,99.90
2022-08-17T02:21:47.135Z,99.90
2022-08-17T02:24:59.536Z,99.90
2022-08-17T02:27:09.672Z,99.90
2022-08-17T02:29:37.207Z,99.90
2022-08-17T02:32:04.967Z,99.90
2022-08-17T02:34:32.412Z,99.90
2022-08-17T02:36:59.202Z,99.90
2022-08-17T02:39:25.974Z,99.90
2022-08-17T02:42:01.699Z,99.90
2022-08-17T02:44:38.712Z,99.90
2022-08-17T02:47:08.262Z,99.90
2022-08-17T02:49:34.986Z,99.90
2022-08-17T02:52:04.495Z,99.90
2022-08-17T02:54:41.339Z,99.90
2022-08-17T02:57:10.432Z,99.90
2022-08-17T02:59:38.864Z,99.90
2022-08-17T03:02:11.746Z,99.90
2022-08-17T03:04:38.921Z,99.90
2022-08-17T03:07:06.610Z,99.90
2022-08-17T03:09:33.380Z,99.90
2022-08-17T03:12:12.858Z,99.90
2022-08-17T03:14:42.030Z,99.90
2022-08-17T03:17:10.220Z,99.90
2022-08-17T03:19:39.690Z,99.90
2022-08-17T03:22:36.085Z,99.90
2022-08-17T03:24:57.734Z,99.90
2022-08-17T03:27:24.424Z,99.90
2022-08-17T03:29:51.203Z,99.90
2022-08-17T03:32:20.521Z,99.90
2022-08-17T03:34:47.609Z,99.90
2022-08-17T03:37:14.733Z,99.90
2022-08-17T03:39:41.765Z,99.90
2022-08-17T03:42:32.396Z,99.90
2022-08-17T03:45:00.802Z,99.90
2022-08-17T03:47:46.609Z,99.90
2022-08-17T03:50:33.280Z,99.90
2022-08-17T03:53:19.279Z,99.90
2022-08-17T03:56:04.711Z,99.90
2022-08-17T03:58:31.442Z,99.90
2022-08-17T04:00:58.255Z,99.90
2022-08-17T04:03:24.997Z,99.90
2022-08-17T04:05:51.727Z,99.90
2022-08-17T04:08:18.488Z,99.90
2022-08-17T04:10:45.469Z,99.90
2022-08-17T04:13:12.486Z,99.90
2022-08-17T04:15:39.533Z,99.90
2022-08-17T04:18:07.552Z,99.90
2022-08-17T04:20:34.535Z,99.90
2022-08-17T04:23:11.819Z,99.90
2022-08-17T04:25:42.231Z,99.90
2022-08-17T04:28:15.721Z,99.90
2022-08-17T04:30:45.198Z,99.90
2022-08-17T04:33:15.070Z,99.90
2022-08-17T04:35:44.731Z,99.90
2022-08-17T04:38:14.729Z,99.90
2022-08-17T04:41:00.757Z,99.90
2022-08-17T04:43:29.254Z,99.90
2022-08-17T04:45:58.982Z,99.90
2022-08-17T04:48:36.420Z,99.90
2022-08-17T04:51:11.965Z,99.90
2022-08-17T04:53:44.357Z,99.90
2022-08-17T04:56:16.116Z,99.90
2022-08-17T04:58:49.892Z,99.90
2022-08-17T05:01:23.306Z,99.90
2022-08-17T05:03:55.134Z,99.90
2022-08-17T05:06:22.775Z,99.90
2022-08-17T05:08:49.622Z,99.90
2022-08-17T05:11:16.544Z,99.90
2022-08-17T05:13:43.540Z,99.90
2022-08-17T05:16:10.691Z,99.90
2022-08-17T05:18:38.909Z,99.90
2022-08-17T05:21:06.666Z,99.90
2022-08-17T05:23:42.741Z,99.90
2022-08-17T05:26:26.190Z,99.90
2022-08-17T05:29:00.382Z,99.90
2022-08-17T05:31:30.272Z,99.90
2022-08-17T05:33:57.143Z,99.90
2022-08-17T05:36:42.633Z,99.90
2022-08-17T05:39:15.825Z,99.90
2022-08-17T05:41:45.415Z,99.90
2022-08-17T05:44:12.265Z,99.90
2022-08-17T05:46:46.268Z,99.90
2022-08-17T05:49:16.017Z,99.90
2022-08-17T05:52:10.443Z,99.90
2022-08-17T05:55:11.184Z,99.90
2022-08-17T05:58:16.387Z,99.90
2022-08-17T06:00:59.947Z,99.90
2022-08-17T06:03:49.025Z,99.90
2022-08-17T06:06:34.193Z,99.90
2022-08-17T06:09:28.807Z,99.90
2022-08-17T06:12:19.877Z,99.90
2022-08-17T06:14:58.912Z,99.90
2022-08-17T06:17:27.259Z,99.90
2022-08-17T06:20:02.951Z,99.90
2022-08-17T06:22:37.890Z,99.90
2022-08-17T06:25:46.730Z,99.90
2022-08-17T06:28:21.087Z,99.90
2022-08-17T06:30:59.124Z,99.90
2022-08-17T06:33:34.397Z,99.90
2022-08-17T06:36:09.613Z,99.90
2022-08-17T06:39:01.679Z,99.90
2022-08-17T06:41:43.092Z,99.90
2022-08-17T06:44:42.142Z,99.90
2022-08-17T06:47:28.131Z,99.90
2022-08-17T06:50:27.728Z,99.90
2022-08-17T06:53:04.333Z,99.90
2022-08-17T06:55:49.426Z,99.90
2022-08-17T06:58:22.257Z,99.90
2022-08-17T07:00:58.540Z,99.90
2022-08-17T07:03:49.788Z,99.90
2022-08-17T07:06:23.634Z,99.90
2022-08-17T07:09:14.531Z,99.90
2022-08-17T07:11:52.983Z,99.90
2022-08-17T07:14:43.711Z,99.90
2022-08-17T07:17:13.838Z,99.90
2022-08-17T07:19:45.302Z,99.90
2022-08-17T07:22:23.927Z,99.90
2022-08-17T07:24:59.643Z,99.90
2022-08-17T07:27:31.270Z,99.90
2022-08-17T07:30:03.747Z,99.90
2022-08-17T07:32:39.611Z,99.90
2022-08-17T07:35:37.528Z,99.90
2022-08-17T07:38:25.221Z,99.90
2022-08-17T07:41:02.537Z,99.90
2022-08-17T07:43:31.575Z,99.90
2022-08-17T07:46:29.615Z,99.90
2022-08-17T07:49:16.226Z,99.90
2022-08-17T07:51:43.261Z,99.90
2022-08-17T07:54:33.101Z,99.90
2022-08-17T07:57:10.324Z,99.90
2022-08-17T07:59:40.724Z,99.90
2022-08-17T08:02:34.405Z,99.90
2022-08-17T08:05:12.981Z,99.90
2022-08-17T08:07:56.939Z,99.90
2022-08-17T08:10:42.520Z,99.90
2022-08-17T08:13:25.661Z,99.90
2022-08-17T08:16:13.249Z,99.90
2022-08-17T08:18:54.690Z,99.90
2022-08-17T08:21:32.010Z,99.90
2022-08-17T08:24:11.563Z,99.90
2022-08-17T08:27:20.084Z,99.90
2022-08-17T08:29:56.242Z,99.90
2022-08-17T08:32:50.441Z,99.90
2022-08-17T08:35:23.093Z,99.90
2022-08-17T08:38:15.282Z,99.90
2022-08-17T08:41:04.044Z,99.90
2022-08-17T08:43:58.175Z,99.90
2022-08-17T08:46:32.554Z,99.90
2022-08-17T08:49:45.215Z,99.90
2022-08-17T08:52:34.032Z,99.90
2022-08-17T08:55:19.119Z,99.90
2022-08-17T08:58:00.081Z,99.90
2022-08-17T09:00:29.321Z,99.90
2022-08-17T09:03:51.495Z,99.90
2022-08-17T09:06:39.520Z,99.90
2022-08-17T09:09:27.736Z,99.90
2022-08-17T09:12:17.432Z,99.90
2022-08-17T09:15:13.235Z,99.90
2022-08-17T09:18:39.593Z,99.90
2022-08-17T09:20:55.296Z,99.90
2022-08-17T09:23:32.513Z,99.90
2022-08-17T09:26:11.996Z,99.90
2022-08-17T09:28:43.558Z,99.90
2022-08-17T09:31:18.804Z,99.90
2022-08-17T09:33:48.283Z,99.90
2022-08-17T09:36:21.717Z,99.90
2022-08-17T09:39:02.143Z,99.90
2022-08-17T09:41:49.037Z,99.90
2022-08-17T09:44:30.909Z,99.90
2022-08-17T09:47:36.836Z,99.90
2022-08-17T09:50:15.409Z,99.90
2022-08-17T09:52:42.964Z,99.90
2022-08-17T09:55:09.963Z,99.90
2022-08-17T09:57:49.731Z,99.90
2022-08-17T10:00:27.798Z,99.90
2022-08-17T10:03:28.189Z,99.90
2022-08-17T10:06:22.275Z,99.90
2022-08-17T10:09:08.146Z,99.90
2022-08-17T10:12:05.995Z,99.90
2022-08-17T10:14:59.831Z,99.90
2022-08-17T10:17:59.307Z,99.90
2022-08-17T10:20:31.716Z,99.90
2022-08-17T10:23:32.919Z,99.90
2022-08-17T10:26:14.685Z,99.90
2022-08-17T10:28:48.838Z,99.90
2022-08-17T10:31:34.625Z,99.90
2022-08-17T10:34:41.171Z,99.90
2022-08-17T10:37:49.083Z,99.90
2022-08-17T10:40:45.393Z,99.90
2022-08-17T10:43:31.018Z,99.90
2022-08-17T10:46:31.221Z,99.90
2022-08-17T10:49:21.603Z,99.90
2022-08-17T10:51:53.488Z,99.90
2022-08-17T10:54:49.020Z,99.90
2022-08-17T10:57:31.639Z,99.90
2022-08-17T11:00:08.659Z,99.90
2022-08-17T11:02:54.078Z,99.90
2022-08-17T11:05:59.266Z,99.90
2022-08-17T11:08:38.395Z,99.90
2022-08-17T11:11:34.394Z,99.90
2022-08-17T11:14:33.092Z,99.90
2022-08-17T11:17:20.480Z,99.90
2022-08-17T11:19:56.540Z,99.90
2022-08-17T11:23:00.972Z,99.90
2022-08-17T11:25:54.375Z,99.90
2022-08-17T11:28:28.159Z,99.90
2022-08-17T11:30:59.342Z,99.90
2022-08-17T11:33:29.707Z,99.90
2022-08-17T11:36:21.871Z,99.90
2022-08-17T11:39:17.682Z,99.90
2022-08-17T11:42:05.823Z,99.90
2022-08-17T11:44:42.329Z,99.90
2022-08-17T11:47:36.818Z,99.90
2022-08-17T11:50:44.094Z,99.90
2022-08-17T11:53:39.095Z,99.90
2022-08-17T11:56:10.584Z,99.90
2022-08-17T11:58:41.008Z,99.90
2022-08-17T12:01:32.851Z,98.90
2022-08-17T12:04:27.835Z,98.60
2022-08-17T12:07:16.886Z,97.70
2022-08-17T12:09:49.106Z,95.10
2022-08-17T12:12:22.236Z,95.30
2022-08-17T12:15:10.076Z,95.50
2022-08-17T12:17:41.106Z,94.50
2022-08-17T12:20:19.660Z,94.20
2022-08-17T12:23:00.956Z,92.60
2022-08-17T12:25:42.879Z,92.90
2022-08-17T12:28:32.826Z,92.30
2022-08-17T12:31:04.246Z,93.90
2022-08-17T12:33:31.286Z,91.10
2022-08-17T12:36:03.021Z,90.80
2022-08-17T12:38:35.151Z,89.80
2022-08-17T12:41:24.419Z,90.00
2022-08-17T12:44:21.898Z,88.40
2022-08-17T12:46:51.511Z,86.50
2022-08-17T12:49:26.361Z,87.50
2022-08-17T12:52:01.736Z,86.00
2022-08-17T12:54:40.261Z,84.00
2022-08-17T12:57:14.008Z,83.90
2022-08-17T12:59:43.982Z,80.90
2022-08-17T13:02:22.161Z,79.80
2022-08-17T13:04:49.323Z,80.10
2022-08-17T13:07:27.717Z,77.50
2022-08-17T13:09:54.583Z,77.00
2022-08-17T13:12:30.083Z,73.80
2022-08-17T13:14:57.841Z,73.90
2022-08-17T13:17:31.011Z,73.40
2022-08-17T13:19:58.719Z,74.70
2022-08-17T13:22:27.888Z,74.60
2022-08-17T13:25:00.747Z,75.80
2022-08-17T13:27:29.113Z,73.60
2022-08-17T13:29:59.764Z,75.70
2022-08-17T13:32:46.336Z,77.20
2022-08-17T13:35:50.022Z,74.10
2022-08-17T13:38:45.569Z,74.20
2022-08-17T13:41:37.060Z,72.90
2022-08-17T13:44:39.456Z,72.70
2022-08-17T13:47:16.451Z,73.00
2022-08-17T13:49:49.289Z,72.30
2022-08-17T13:52:37.986Z,72.20
2022-08-17T13:55:17.845Z,70.40
2022-08-17T13:57:47.847Z,69.00
2022-08-17T14:00:30.114Z,68.30
2022-08-17T14:02:59.079Z,67.40
2022-08-17T14:05:26.694Z,68.30
2022-08-17T14:08:06.482Z,69.40
2022-08-17T14:10:36.299Z,69.70
2022-08-17T14:13:03.994Z,69.20
2022-08-17T14:15:55.063Z,70.80
2022-08-17T14:18:35.555Z,71.40
2022-08-17T14:21:08.306Z,71.30
2022-08-17T14:23:36.560Z,70.20
2022-08-17T14:26:03.857Z,70.60
2022-08-17T14:28:30.627Z,71.00
2022-08-17T14:31:00.690Z,71.20
2022-08-17T14:33:29.086Z,71.00
2022-08-17T14:35:57.477Z,71.30
2022-08-17T14:38:24.677Z,71.60
2022-08-17T14:40:51.820Z,71.70
2022-08-17T14:43:18.772Z,72.50
2022-08-17T14:45:45.568Z,72.10
2022-08-17T14:48:12.378Z,72.00
2022-08-17T14:50:42.571Z,71.00
2022-08-17T14:53:12.396Z,72.70
2022-08-17T14:55:41.967Z,72.10
2022-08-17T14:58:09.423Z,71.30
2022-08-17T15:00:37.202Z,71.10
2022-08-17T15:03:04.829Z,71.70
2022-08-17T15:05:34.222Z,71.30
2022-08-17T15:08:02.156Z,72.20
2022-08-17T15:10:30.341Z,71.40
2022-08-17T15:12:57.583Z,72.10
2022-08-17T15:15:25.013Z,71.50
2022-08-17T15:17:52.286Z,71.70
2022-08-17T15:20:25.163Z,72.10
2022-08-17T15:22:58.884Z,72.10
2022-08-17T15:25:28.759Z,72.70
2022-08-17T15:27:55.966Z,73.30
2022-08-17T15:30:24.407Z,73.30
2022-08-17T15:32:54.295Z,73.80
2022-08-17T15:35:28.069Z,74.70
2022-08-17T15:38:11.269Z,75.10
2022-08-17T15:40:46.108Z,76.30
2022-08-17T15:43:16.583Z,75.80
2022-08-17T15:45:43.395Z,77.50
2022-08-17T15:48:10.796Z,76.30
2022-08-17T15:50:37.940Z,76.00
2022-08-17T15:53:04.904Z,77.50
2022-08-17T15:55:33.065Z,77.60
2022-08-17T15:58:00.558Z,77.80
2022-08-17T16:00:29.217Z,78.80
2022-08-17T16:03:46.438Z,78.90
2022-08-17T16:05:46.611Z,79.80
2022-08-17T16:08:20.214Z,81.40
2022-08-17T16:10:49.191Z,80.50
2022-08-17T16:13:17.461Z,82.10
2022-08-17T16:15:51.106Z,82.20
2022-08-17T16:18:31.052Z,82.70
2022-08-17T16:21:20.753Z,83.60
2022-08-17T16:23:49.382Z,83.40
2022-08-17T16:26:16.484Z,83.80
2022-08-17T16:28:43.580Z,84.50
2022-08-17T16:31:10.698Z,84.40
2022-08-17T16:33:39.385Z,84.70
2022-08-17T16:36:09.708Z,85.00
2022-08-17T16:38:37.120Z,86.40
2022-08-17T16:41:05.674Z,87.30
2022-08-17T16:43:34.014Z,89.60
2022-08-17T16:46:01.699Z,91.00
2022-08-17T16:48:29.625Z,93.00
2022-08-17T16:51:02.978Z,95.60
2022-08-17T16:53:31.272Z,96.90
2022-08-17T16:55:58.361Z,99.10
2022-08-17T16:58:25.145Z,99.90
2022-08-17T17:00:51.991Z,99.90
2022-08-17T17:03:22.103Z,99.90
2022-08-17T17:05:57.973Z,99.90
2022-08-17T17:08:48.340Z,99.90
2022-08-17T17:11:33.658Z,99.90
2022-08-17T17:14:09.108Z,99.90
2022-08-17T17:16:53.651Z,99.90
2022-08-17T17:19:45.533Z,99.90
2022-08-17T17:22:20.237Z,99.90
2022-08-17T17:25:14.183Z,99.90
2022-08-17T17:28:05.174Z,99.90
2022-08-17T17:30:47.045Z,99.90
2022-08-17T17:33:19.700Z,99.90
2022-08-17T17:35:54.368Z,99.90
2022-08-17T17:38:33.039Z,99.90
2022-08-17T17:41:11.757Z,99.90
2022-08-17T17:43:40.659Z,99.90
2022-08-17T17:46:26.625Z,99.90
2022-08-17T17:48:59.322Z,99.90
2022-08-17T17:52:06.778Z,99.90
2022-08-17T17:54:20.242Z,99.90
2022-08-17T17:57:27.661Z,99.90
2022-08-17T18:00:00.419Z,99.90
2022-08-17T18:02:55.400Z,99.90
2022-08-17T18:05:37.312Z,99.90
2022-08-17T18:08:35.110Z,99.90
2022-08-17T18:11:39.501Z,99.90
2022-08-17T18:14:14.790Z,99.90
2022-08-17T18:16:46.245Z,99.90
2022-08-17T18:19:14.265Z,99.90
2022-08-17T18:21:45.792Z,99.90
2022-08-17T18:24:13.596Z,99.90
2022-08-17T18:27:19.051Z,99.90
2022-08-17T18:29:47.671Z,99.90
2022-08-17T18:32:25.165Z,99.90
2022-08-17T18:35:09.533Z,99.90
2022-08-17T18:37:48.216Z,99.90
2022-08-17T18:40:20.697Z,99.90
2022-08-17T18:43:09.279Z,99.90
2022-08-17T18:45:50.331Z,99.90
2022-08-17T18:48:33.159Z,99.90
2022-08-17T18:51:39.714Z,99.90
2022-08-17T18:54:24.054Z,99.90
2022-08-17T18:56:55.492Z,99.90
2022-08-17T18:59:31.051Z,99.90
2022-08-17T19:02:31.430Z,99.90
2022-08-17T19:05:09.494Z,99.90
2022-08-17T19:07:41.019Z,99.90
2022-08-17T19:10:19.865Z,99.90
2022-08-17T19:12:46.620Z,99.90
2022-08-17T19:15:17.759Z,99.90
2022-08-17T19:17:52.306Z,99.90
2022-08-17T19:20:37.579Z,99.90
2022-08-17T19:23:12.882Z,99.90
2022-08-17T19:25:46.066Z,99.90
2022-08-17T19:28:37.382Z,99.90
2022-08-17T19:31:13.948Z,99.90
2022-08-17T19:33:40.663Z,99.90
2022-08-17T19:36:14.981Z,99.90
2022-08-17T19:39:06.831Z,99.90
2022-08-17T19:41:47.072Z,99.90
2022-08-17T19:44:16.941Z,99.90
2022-08-17T19:47:00.905Z,99.90
2022-08-17T19:49:54.475Z,99.90
2022-08-17T19:53:01.222Z,99.90
2022-08-17T19:55:47.551Z,99.90
2022-08-17T19:58:44.896Z,99.90
2022-08-17T20:01:19.179Z,99.90
2022-08-17T20:04:07.867Z,99.90
2022-08-17T20:06:39.058Z,99.90
2022-08-17T20:09:40.039Z,99.90
2022-08-17T20:12:23.875Z,99.90
2022-08-17T20:14:57.175Z,99.90
2022-08-17T20:17:32.037Z,99.90
2022-08-17T20:20:23.331Z,99.90
2022-08-17T20:23:04.726Z,99.90
2022-08-17T20:25:53.011Z,99.90
2022-08-17T20:28:29.529Z,99.90
2022-08-17T20:30:58.215Z,99.90
2022-08-17T20:33:37.356Z,99.90
2022-08-17T20:36:18.759Z,99.90
2022-08-17T20:38:55.386Z,99.90
2022-08-17T20:41:27.794Z,99.90
2022-08-17T20:43:58.242Z,99.90
2022-08-17T20:46:36.714Z,99.90
2022-08-17T20:49:15.055Z,99.90
2022-08-17T20:52:01.142Z,99.90
2022-08-17T20:54:40.768Z,99.90
2022-08-17T20:57:13.782Z,99.90
2022-08-17T20:59:44.153Z,99.90
2022-08-17T21:02:19.927Z,99.90
2022-08-17T21:04:56.555Z,99.90
2022-08-17T21:07:43.038Z,99.90
2022-08-17T21:10:25.421Z,99.90
2022-08-17T21:13:41.130Z,99.90
2022-08-17T21:16:29.210Z,99.90
2022-08-17T21:19:25.912Z,99.90
2022-08-17T21:22:05.370Z,99.90
2022-08-17T21:25:13.770Z,99.90
2022-08-17T21:28:10.712Z,99.90
2022-08-17T21:30:39.385Z,99.90
2022-08-17T21:33:24.873Z,99.90
2022-08-17T21:35:59.536Z,99.90
2022-08-17T21:38:42.892Z,99.90
2022-08-17T21:41:27.294Z,99.90
2022-08-17T21:44:02.745Z,99.90
2022-08-17T21:46:32.275Z,99.90
2022-08-17T21:49:13.377Z,99.90
2022-08-17T21:51:47.969Z,99.90
2022-08-17T21:54:31.399Z,99.90
2022-08-17T21:57:01.158Z,99.90
2022-08-17T21:59:35.587Z,99.90
2022-08-17T22:02:09.365Z,99.90
2022-08-17T22:04:39.038Z,99.90
2022-08-17T22:07:10.176Z,99.90
2022-08-17T22:09:46.621Z,99.90
2022-08-17T22:12:16.433Z,99.90
2022-08-17T22:14:52.667Z,99.90
2022-08-17T22:17:22.581Z,99.90
2022-08-17T22:20:01.511Z,99.90
2022-08-17T22:23:17.838Z,99.90
2022-08-17T22:26:00.110Z,99.90
2022-08-17T22:28:40.192Z,99.90
2022-08-17T22:31:10.743Z,99.90
2022-08-17T22:33:52.060Z,99.90
2022-08-17T22:36:35.165Z,99.90
2022-08-17T22:39:08.354Z,99.90
2022-08-17T22:41:48.060Z,99.90
2022-08-17T22:44:23.054Z,99.90
2022-08-17T22:46:52.579Z,99.90
2022-08-17T22:49:53.914Z,99.90
2022-08-17T22:53:03.342Z,99.90
2022-08-17T22:55:51.911Z,99.90
2022-08-17T22:58:42.014Z,99.90
2022-08-17T23:01:32.308Z,99.90
2022-08-17T23:04:05.866Z,99.90
2022-08-17T23:06:33.962Z,99.90
2022-08-17T23:09:04.146Z,99.90
2022-08-17T23:11:49.331Z,99.90
2022-08-17T23:14:21.434Z,99.90
2022-08-17T23:16:51.331Z,99.90
2022-08-17T23:19:20.767Z,99.90
2022-08-17T23:21:50.992Z,99.90
2022-08-17T23:24:25.330Z,99.90
2022-08-17T23:26:52.692Z,99.90
2022-08-17T23:29:22.853Z,99.90
2022-08-17T23:31:50.995Z,99.90
2022-08-17T23:34:18.547Z,99.90
2022-08-17T23:36:53.111Z,99.90
2022-08-17T23:39:27.289Z,99.90
2022-08-17T23:41:59.019Z,99.90
2022-08-17T23:44:26.584Z,99.90
2022-08-17T23:46:54.431Z,99.90
2022-08-17T23:49:21.230Z,99.90
2022-08-17T23:51:48.736Z,99.90
2022-08-17T23:54:21.733Z,99.90
2022-08-17T23:56:48.590Z,99.90
2022-08-17T23:59:18.588Z,99.90
